sensor_id;sensor_type;location;lat;lon;timestamp;pressure;altitude;pressure_sealevel;temperature;humidity
62402;BME280;48440;51.224;22.506;2023-04-12T00:00:30;98409.38;;;10.28;63.36
62402;BME280;48440;51.224;22.506;2023-04-12T00:02:56;98394.19;;;10.22;63.59
62402;BME280;48440;51.224;22.506;2023-04-12T00:05:24;98394.19;;;10.12;63.72
62402;BME280;48440;51.224;22.506;2023-04-12T00:07:52;98401.78;;;10.10;64.21
62402;BME280;48440;51.224;22.506;2023-04-12T00:10:19;98392.28;;;10.07;64.36
62402;BME280;48440;51.224;22.506;2023-04-12T00:12:45;98393.09;;;10.03;64.48
62402;BME280;48440;51.224;22.506;2023-04-12T00:15:11;98397.72;;;10.02;64.88
62402;BME280;48440;51.224;22.506;2023-04-12T00:17:36;98389.31;;;9.94;64.66
62402;BME280;48440;51.224;22.506;2023-04-12T00:20:02;98386.06;;;9.92;64.73
62402;BME280;48440;51.224;22.506;2023-04-12T00:22:41;98379.81;;;9.91;65.49
62402;BME280;48440;51.224;22.506;2023-04-12T00:25:07;98379.56;;;9.87;65.59
62402;BME280;48440;51.224;22.506;2023-04-12T00:27:33;98377.97;;;9.81;65.91
62402;BME280;48440;51.224;22.506;2023-04-12T00:29:59;98375.50;;;9.80;65.58
62402;BME280;48440;51.224;22.506;2023-04-12T00:32:25;98371.19;;;9.79;65.68
62402;BME280;48440;51.224;22.506;2023-04-12T00:34:51;98377.69;;;9.78;65.77
62402;BME280;48440;51.224;22.506;2023-04-12T00:37:16;98377.94;;;9.76;66.03
62402;BME280;48440;51.224;22.506;2023-04-12T00:39:42;98379.03;;;9.75;65.86
62402;BME280;48440;51.224;22.506;2023-04-12T00:42:07;98379.84;;;9.71;66.32
62402;BME280;48440;51.224;22.506;2023-04-12T00:44:32;98364.94;;;9.63;66.10
62402;BME280;48440;51.224;22.506;2023-04-12T00:46:58;98376.31;;;9.65;66.44
62402;BME280;48440;51.224;22.506;2023-04-12T00:49:26;98372.53;;;9.66;66.50
62402;BME280;48440;51.224;22.506;2023-04-12T00:51:59;98378.75;;;9.67;66.55
62402;BME280;48440;51.224;22.506;2023-04-12T00:54:30;98375.25;;;9.61;66.93
62402;BME280;48440;51.224;22.506;2023-04-12T00:56:57;98377.66;;;9.63;66.84
62402;BME280;48440;51.224;22.506;2023-04-12T00:59:25;98379.59;;;9.57;66.88
62402;BME280;48440;51.224;22.506;2023-04-12T01:01:51;98382.56;;;9.50;66.98
62402;BME280;48440;51.224;22.506;2023-04-12T01:04:17;98372.53;;;9.46;67.63
62402;BME280;48440;51.224;22.506;2023-04-12T01:07:04;98366.28;;;9.40;67.27
62402;BME280;48440;51.224;22.506;2023-04-12T01:15:10;98364.91;;;9.38;68.02
62402;BME280;48440;51.224;22.506;2023-04-12T01:17:48;98362.78;;;9.35;67.57
62402;BME280;48440;51.224;22.506;2023-04-12T01:20:22;98356.28;;;9.31;67.89
62402;BME280;48440;51.224;22.506;2023-04-12T01:25:43;98358.41;;;9.18;68.57
62402;BME280;48440;51.224;22.506;2023-04-12T01:28:14;98353.81;;;9.19;68.25
62402;BME280;48440;51.224;22.506;2023-04-12T01:30:41;98350.84;;;9.21;68.26
62402;BME280;48440;51.224;22.506;2023-04-12T01:33:09;98347.03;;;9.22;68.27
62402;BME280;48440;51.224;22.506;2023-04-12T01:35:36;98353.81;;;9.24;68.20
62402;BME280;48440;51.224;22.506;2023-04-12T01:38:03;98343.81;;;9.25;67.92
62402;BME280;48440;51.224;22.506;2023-04-12T01:40:29;98345.41;;;9.21;67.66
62402;BME280;48440;51.224;22.506;2023-04-12T01:43:24;98351.63;;;9.11;67.86
62402;BME280;48440;51.224;22.506;2023-04-12T01:45:50;98348.41;;;9.09;67.86
62402;BME280;48440;51.224;22.506;2023-04-12T01:48:16;98339.19;;;9.05;68.61
62402;BME280;48440;51.224;22.506;2023-04-12T01:51:09;98345.91;;;8.97;68.97
62402;BME280;48440;51.224;22.506;2023-04-12T01:53:53;98348.06;;;8.95;69.00
62402;BME280;48440;51.224;22.506;2023-04-12T01:56:22;98346.97;;;8.86;69.03
62402;BME280;48440;51.224;22.506;2023-04-12T01:58:50;98344.00;;;8.82;69.01
62402;BME280;48440;51.224;22.506;2023-04-12T02:01:17;98341.81;;;8.79;69.06
62402;BME280;48440;51.224;22.506;2023-04-12T02:03:44;98329.38;;;8.78;69.05
62402;BME280;48440;51.224;22.506;2023-04-12T02:06:10;98340.19;;;8.73;69.14
62402;BME280;48440;51.224;22.506;2023-04-12T02:08:36;98333.13;;;8.67;69.28
62402;BME280;48440;51.224;22.506;2023-04-12T02:11:19;98336.38;;;8.69;69.53
62402;BME280;48440;51.224;22.506;2023-04-12T02:13:45;98337.72;;;8.72;69.07
62402;BME280;48440;51.224;22.506;2023-04-12T02:16:10;98340.69;;;8.65;69.45
62402;BME280;48440;51.224;22.506;2023-04-12T02:18:38;98346.31;;;8.59;69.15
62402;BME280;48440;51.224;22.506;2023-04-12T02:21:05;98349.59;;;8.56;69.12
62402;BME280;48440;51.224;22.506;2023-04-12T02:23:31;98350.91;;;8.48;69.83
62402;BME280;48440;51.224;22.506;2023-04-12T02:25:56;98347.66;;;8.46;69.68
62402;BME280;48440;51.224;22.506;2023-04-12T02:28:22;98354.69;;;8.47;70.10
62402;BME280;48440;51.224;22.506;2023-04-12T02:30:47;98361.94;;;8.41;69.79
62402;BME280;48440;51.224;22.506;2023-04-12T02:33:13;98361.66;;;8.38;69.77
62402;BME280;48440;51.224;22.506;2023-04-12T02:35:39;98358.94;;;8.38;69.71
62402;BME280;48440;51.224;22.506;2023-04-12T02:38:05;98360.28;;;8.35;70.13
62402;BME280;48440;51.224;22.506;2023-04-12T02:40:33;98355.16;;;8.34;69.94
62402;BME280;48440;51.224;22.506;2023-04-12T02:42:59;98355.69;;;8.36;70.39
62402;BME280;48440;51.224;22.506;2023-04-12T02:45:25;98355.97;;;8.39;70.22
62402;BME280;48440;51.224;22.506;2023-04-12T02:47:50;98361.69;;;8.43;70.39
62402;BME280;48440;51.224;22.506;2023-04-12T02:50:16;98362.75;;;8.42;70.08
62402;BME280;48440;51.224;22.506;2023-04-12T02:52:41;98367.63;;;8.40;69.54
62402;BME280;48440;51.224;22.506;2023-04-12T02:55:07;98366.72;;;8.29;69.63
62402;BME280;48440;51.224;22.506;2023-04-12T02:57:32;98365.88;;;8.24;70.07
62402;BME280;48440;51.224;22.506;2023-04-12T02:59:58;98364.25;;;8.23;70.01
62402;BME280;48440;51.224;22.506;2023-04-12T03:02:23;98362.34;;;8.18;70.21
62402;BME280;48440;51.224;22.506;2023-04-12T03:04:48;98370.44;;;8.18;70.13
62402;BME280;48440;51.224;22.506;2023-04-12T03:07:19;98372.59;;;8.16;71.03
62402;BME280;48440;51.224;22.506;2023-04-12T03:09:49;98372.28;;;8.12;70.46
62402;BME280;48440;51.224;22.506;2023-04-12T03:12:14;98375.00;;;8.12;70.80
62402;BME280;48440;51.224;22.506;2023-04-12T03:14:41;98372.28;;;8.12;71.04
62402;BME280;48440;51.224;22.506;2023-04-12T03:17:06;98370.72;;;8.16;70.98
62402;BME280;48440;51.224;22.506;2023-04-12T03:19:32;98370.97;;;8.15;71.54
62402;BME280;48440;51.224;22.506;2023-04-12T03:22:00;98371.00;;;8.20;71.76
62402;BME280;48440;51.224;22.506;2023-04-12T03:24:26;98376.97;;;8.22;71.90
62402;BME280;48440;51.224;22.506;2023-04-12T03:26:52;98365.88;;;8.24;71.84
62402;BME280;48440;51.224;22.506;2023-04-12T03:29:17;98367.78;;;8.23;72.08
62402;BME280;48440;51.224;22.506;2023-04-12T03:31:43;98376.44;;;8.25;71.65
62402;BME280;48440;51.224;22.506;2023-04-12T03:34:08;98375.63;;;8.25;72.05
62402;BME280;48440;51.224;22.506;2023-04-12T03:36:34;98376.19;;;8.27;71.96
62402;BME280;48440;51.224;22.506;2023-04-12T03:38:59;98375.09;;;8.28;72.10
62402;BME280;48440;51.224;22.506;2023-04-12T03:41:25;98375.88;;;8.23;71.89
62402;BME280;48440;51.224;22.506;2023-04-12T03:43:50;98384.00;;;8.23;72.41
62402;BME280;48440;51.224;22.506;2023-04-12T03:46:16;98385.06;;;8.22;72.91
62402;BME280;48440;51.224;22.506;2023-04-12T03:48:42;98383.19;;;8.23;72.43
62402;BME280;48440;51.224;22.506;2023-04-12T03:51:08;98392.38;;;8.22;71.77
62402;BME280;48440;51.224;22.506;2023-04-12T03:53:37;98392.31;;;8.16;71.83
62402;BME280;48440;51.224;22.506;2023-04-12T03:56:02;98391.22;;;8.12;71.79
62402;BME280;48440;51.224;22.506;2023-04-12T03:58:28;98392.53;;;8.10;72.22
62402;BME280;48440;51.224;22.506;2023-04-12T04:00:53;98390.41;;;8.12;72.33
62402;BME280;48440;51.224;22.506;2023-04-12T04:03:19;98391.50;;;8.16;72.14
62402;BME280;48440;51.224;22.506;2023-04-12T04:05:47;98390.19;;;8.18;72.60
62402;BME280;48440;51.224;22.506;2023-04-12T04:08:12;98383.97;;;8.18;72.61
62402;BME280;48440;51.224;22.506;2023-04-12T04:10:38;98395.59;;;8.18;73.06
62402;BME280;48440;51.224;22.506;2023-04-12T04:13:03;98394.50;;;8.20;73.36
62402;BME280;48440;51.224;22.506;2023-04-12T04:15:29;98396.09;;;8.15;73.90
62402;BME280;48440;51.224;22.506;2023-04-12T04:17:54;98399.31;;;8.12;74.00
62402;BME280;48440;51.224;22.506;2023-04-12T04:20:20;98396.88;;;8.11;73.82
62402;BME280;48440;51.224;22.506;2023-04-12T04:22:45;98404.69;;;8.07;73.99
62402;BME280;48440;51.224;22.506;2023-04-12T04:25:14;98402.78;;;8.08;74.00
62402;BME280;48440;51.224;22.506;2023-04-12T04:27:41;98407.66;;;8.06;73.79
62402;BME280;48440;51.224;22.506;2023-04-12T04:30:09;98401.97;;;8.02;74.21
62402;BME280;48440;51.224;22.506;2023-04-12T04:32:36;98404.13;;;8.00;74.43
62402;BME280;48440;51.224;22.506;2023-04-12T04:35:02;98413.56;;;7.98;74.05
62402;BME280;48440;51.224;22.506;2023-04-12T04:37:28;98412.78;;;8.02;73.99
62402;BME280;48440;51.224;22.506;2023-04-12T04:39:59;98412.53;;;8.04;74.54
62402;BME280;48440;51.224;22.506;2023-04-12T04:42:26;98416.34;;;8.13;74.72
62402;BME280;48440;51.224;22.506;2023-04-12T04:44:53;98415.06;;;8.21;74.65
62402;BME280;48440;51.224;22.506;2023-04-12T04:47:27;98419.13;;;8.23;74.84
62402;BME280;48440;51.224;22.506;2023-04-12T04:49:55;98417.19;;;8.18;75.12
62402;BME280;48440;51.224;22.506;2023-04-12T04:52:22;98419.94;;;8.24;74.82
62402;BME280;48440;51.224;22.506;2023-04-12T04:54:48;98419.16;;;8.28;74.88
62402;BME280;48440;51.224;22.506;2023-04-12T04:57:13;98414.56;;;8.29;74.51
62402;BME280;48440;51.224;22.506;2023-04-12T04:59:39;98412.13;;;8.27;74.49
62402;BME280;48440;51.224;22.506;2023-04-12T05:02:04;98417.78;;;8.26;75.34
62402;BME280;48440;51.224;22.506;2023-04-12T05:04:30;98410.81;;;8.30;74.83
62402;BME280;48440;51.224;22.506;2023-04-12T05:06:55;98410.25;;;8.28;74.72
62402;BME280;48440;51.224;22.506;2023-04-12T05:09:21;98411.63;;;8.30;75.13
62402;BME280;48440;51.224;22.506;2023-04-12T05:11:46;98408.69;;;8.37;74.60
62402;BME280;48440;51.224;22.506;2023-04-12T05:14:11;98410.91;;;8.45;74.69
62402;BME280;48440;51.224;22.506;2023-04-12T05:16:37;98409.59;;;8.53;74.62
62402;BME280;48440;51.224;22.506;2023-04-12T05:19:02;98403.94;;;8.59;74.84
62402;BME280;48440;51.224;22.506;2023-04-12T05:21:28;98407.72;;;8.58;74.86
62402;BME280;48440;51.224;22.506;2023-04-12T05:23:53;98402.34;;;8.63;74.75
62402;BME280;48440;51.224;22.506;2023-04-12T05:26:18;98402.59;;;8.62;74.60
62402;BME280;48440;51.224;22.506;2023-04-12T05:28:45;98408.28;;;8.65;74.68
62402;BME280;48440;51.224;22.506;2023-04-12T05:31:11;98409.41;;;8.69;74.22
62402;BME280;48440;51.224;22.506;2023-04-12T05:33:36;98410.75;;;8.67;74.48
62402;BME280;48440;51.224;22.506;2023-04-12T05:36:02;98412.91;;;8.70;74.15
62402;BME280;48440;51.224;22.506;2023-04-12T05:38:28;98412.09;;;8.69;73.57
62402;BME280;48440;51.224;22.506;2023-04-12T05:40:53;98418.56;;;8.63;74.31
62402;BME280;48440;51.224;22.506;2023-04-12T05:43:19;98417.47;;;8.64;74.11
62402;BME280;48440;51.224;22.506;2023-04-12T05:45:44;98416.13;;;8.62;74.62
62402;BME280;48440;51.224;22.506;2023-04-12T05:48:10;98426.38;;;8.60;74.57
62402;BME280;48440;51.224;22.506;2023-04-12T05:50:35;98425.31;;;8.61;74.56
62402;BME280;48440;51.224;22.506;2023-04-12T05:53:01;98438.56;;;8.57;74.97
62402;BME280;48440;51.224;22.506;2023-04-12T05:55:27;98436.94;;;8.56;75.15
62402;BME280;48440;51.224;22.506;2023-04-12T05:57:53;98436.66;;;8.58;74.77
62402;BME280;48440;51.224;22.506;2023-04-12T06:00:19;98435.31;;;8.60;75.16
62402;BME280;48440;51.224;22.506;2023-04-12T06:02:46;98437.50;;;8.63;75.55
62402;BME280;48440;51.224;22.506;2023-04-12T06:05:12;98438.38;;;8.74;74.66
62402;BME280;48440;51.224;22.506;2023-04-12T06:07:39;98429.75;;;8.82;74.77
62402;BME280;48440;51.224;22.506;2023-04-12T06:10:06;98428.94;;;8.87;75.49
62402;BME280;48440;51.224;22.506;2023-04-12T06:12:32;98429.78;;;8.92;75.04
62402;BME280;48440;51.224;22.506;2023-04-12T06:14:57;98426.00;;;8.93;75.03
62402;BME280;48440;51.224;22.506;2023-04-12T06:20:40;98420.69;;;9.24;75.01
62402;BME280;48440;51.224;22.506;2023-04-12T06:23:06;98427.75;;;9.45;73.75
62402;BME280;48440;51.224;22.506;2023-04-12T06:25:32;98429.41;;;9.56;73.75
62402;BME280;48440;51.224;22.506;2023-04-12T06:27:58;98418.03;;;9.64;73.45
62402;BME280;48440;51.224;22.506;2023-04-12T06:30:23;98418.34;;;9.83;73.33
62402;BME280;48440;51.224;22.506;2023-04-12T06:32:49;98425.34;;;9.89;73.17
62402;BME280;48440;51.224;22.506;2023-04-12T06:35:15;98422.66;;;9.89;71.85
62402;BME280;48440;51.224;22.506;2023-04-12T06:37:41;98423.19;;;9.91;71.85
62402;BME280;48440;51.224;22.506;2023-04-12T06:40:07;98419.66;;;9.96;72.14
62402;BME280;48440;51.224;22.506;2023-04-12T06:42:33;98424.28;;;9.95;72.40
62402;BME280;48440;51.224;22.506;2023-04-12T06:44:58;98428.34;;;9.93;72.74
62402;BME280;48440;51.224;22.506;2023-04-12T06:47:24;98434.03;;;9.96;72.88
62402;BME280;48440;51.224;22.506;2023-04-12T06:49:49;98437.00;;;9.90;72.35
62402;BME280;48440;51.224;22.506;2023-04-12T06:52:25;98437.81;;;9.90;73.35
62402;BME280;48440;51.224;22.506;2023-04-12T06:54:51;98434.31;;;9.95;73.07
62402;BME280;48440;51.224;22.506;2023-04-12T06:57:16;98438.91;;;9.94;73.09
62402;BME280;48440;51.224;22.506;2023-04-12T06:59:42;98441.88;;;9.93;72.48
62402;BME280;48440;51.224;22.506;2023-04-12T07:02:08;98447.59;;;9.96;73.33
62402;BME280;48440;51.224;22.506;2023-04-12T07:04:33;98460.84;;;9.87;72.43
62402;BME280;48440;51.224;22.506;2023-04-12T07:06:59;98454.34;;;9.88;72.20
62402;BME280;48440;51.224;22.506;2023-04-12T07:09:25;98449.47;;;9.91;72.40
62402;BME280;48440;51.224;22.506;2023-04-12T07:11:50;98442.44;;;10.25;72.22
62402;BME280;48440;51.224;22.506;2023-04-12T07:14:16;98438.41;;;11.07;71.23
62402;BME280;48440;51.224;22.506;2023-04-12T07:16:42;98445.88;;;11.80;68.89
62402;BME280;48440;51.224;22.506;2023-04-12T07:19:07;98442.72;;;12.36;66.10
62402;BME280;48440;51.224;22.506;2023-04-12T07:21:33;98449.56;;;12.28;64.56
62402;BME280;48440;51.224;22.506;2023-04-12T07:23:58;98456.66;;;12.24;65.22
62402;BME280;48440;51.224;22.506;2023-04-12T07:26:24;98450.78;;;12.46;64.97
62402;BME280;48440;51.224;22.506;2023-04-12T07:28:50;98444.69;;;13.02;63.21
62402;BME280;48440;51.224;22.506;2023-04-12T07:31:16;98444.28;;;13.13;64.13
62402;BME280;48440;51.224;22.506;2023-04-12T07:33:42;98450.66;;;13.28;63.38
62402;BME280;48440;51.224;22.506;2023-04-12T07:36:08;98459.66;;;13.28;61.12
62402;BME280;48440;51.224;22.506;2023-04-12T07:38:33;98452.28;;;13.05;61.84
62402;BME280;48440;51.224;22.506;2023-04-12T07:40:59;98445.94;;;12.67;62.82
62402;BME280;48440;51.224;22.506;2023-04-12T07:43:24;98448.19;;;12.31;64.05
62402;BME280;48440;51.224;22.506;2023-04-12T07:45:50;98446.97;;;12.18;65.39
62402;BME280;48440;51.224;22.506;2023-04-12T07:48:16;98440.34;;;11.95;65.97
62402;BME280;48440;51.224;22.506;2023-04-12T07:50:42;98438.13;;;11.97;66.86
62402;BME280;48440;51.224;22.506;2023-04-12T07:53:19;98438.34;;;12.06;65.79
62402;BME280;48440;51.224;22.506;2023-04-12T07:55:45;98433.06;;;12.19;65.81
62402;BME280;48440;51.224;22.506;2023-04-12T07:58:10;98436.72;;;12.34;66.59
62402;BME280;48440;51.224;22.506;2023-04-12T08:00:36;98441.31;;;12.38;66.40
62402;BME280;48440;51.224;22.506;2023-04-12T08:03:01;98434.09;;;12.52;66.34
62402;BME280;48440;51.224;22.506;2023-04-12T08:05:27;98442.41;;;12.66;65.46
62402;BME280;48440;51.224;22.506;2023-04-12T08:07:52;98436.72;;;12.86;65.19
62402;BME280;48440;51.224;22.506;2023-04-12T08:10:17;98441.25;;;12.72;64.87
62402;BME280;48440;51.224;22.506;2023-04-12T08:12:43;98444.38;;;12.84;64.83
62402;BME280;48440;51.224;22.506;2023-04-12T08:15:08;98440.44;;;12.96;64.20
62402;BME280;48440;51.224;22.506;2023-04-12T08:17:34;98438.22;;;13.21;63.52
62402;BME280;48440;51.224;22.506;2023-04-12T08:20:00;98443.75;;;13.16;62.08
62402;BME280;48440;51.224;22.506;2023-04-12T08:22:25;98434.91;;;12.77;62.32
62402;BME280;48440;51.224;22.506;2023-04-12T08:24:51;98441.34;;;12.62;62.84
62402;BME280;48440;51.224;22.506;2023-04-12T08:27:16;98444.06;;;12.62;62.70
62402;BME280;48440;51.224;22.506;2023-04-12T08:29:42;98445.22;;;12.56;63.91
62402;BME280;48440;51.224;22.506;2023-04-12T08:32:09;98436.53;;;12.54;65.12
62402;BME280;48440;51.224;22.506;2023-04-12T08:34:36;98439.25;;;12.54;65.68
62402;BME280;48440;51.224;22.506;2023-04-12T08:37:02;98434.13;;;12.47;65.80
62402;BME280;48440;51.224;22.506;2023-04-12T08:39:27;98435.34;;;12.36;64.82
62402;BME280;48440;51.224;22.506;2023-04-12T08:41:53;98438.59;;;12.38;65.53
62402;BME280;48440;51.224;22.506;2023-04-12T08:44:32;98428.81;;;12.37;66.08
62402;BME280;48440;51.224;22.506;2023-04-12T08:47:00;98436.22;;;12.32;65.69
62402;BME280;48440;51.224;22.506;2023-04-12T08:49:26;98440.72;;;12.17;64.31
62402;BME280;48440;51.224;22.506;2023-04-12T08:51:52;98441.84;;;12.11;64.54
62402;BME280;48440;51.224;22.506;2023-04-12T08:54:18;98441.84;;;12.11;65.79
62402;BME280;48440;51.224;22.506;2023-04-12T08:56:45;98436.41;;;12.11;65.48
62402;BME280;48440;51.224;22.506;2023-04-12T08:59:12;98440.53;;;12.04;66.10
62402;BME280;48440;51.224;22.506;2023-04-12T09:01:40;98440.81;;;12.02;65.63
62402;BME280;48440;51.224;22.506;2023-04-12T09:04:06;98441.44;;;11.94;66.46
62402;BME280;48440;51.224;22.506;2023-04-12T09:06:32;98434.66;;;11.92;65.88
62402;BME280;48440;51.224;22.506;2023-04-12T09:08:57;98437.56;;;12.00;66.06
62402;BME280;48440;51.224;22.506;2023-04-12T09:11:27;98438.31;;;12.11;66.48
62402;BME280;48440;51.224;22.506;2023-04-12T09:13:54;98439.59;;;12.18;66.71
62402;BME280;48440;51.224;22.506;2023-04-12T09:16:36;98428.84;;;12.32;67.04
62402;BME280;48440;51.224;22.506;2023-04-12T09:19:03;98432.19;;;12.53;65.80
62402;BME280;48440;51.224;22.506;2023-04-12T09:21:29;98428.25;;;13.12;64.38
62402;BME280;48440;51.224;22.506;2023-04-12T09:24:08;98427.88;;;13.42;63.02
62402;BME280;48440;51.224;22.506;2023-04-12T09:26:36;98423.88;;;13.72;62.59
62402;BME280;48440;51.224;22.506;2023-04-12T09:29:03;98421.59;;;14.12;63.25
62402;BME280;48440;51.224;22.506;2023-04-12T09:31:29;98420.09;;;14.19;62.22
62402;BME280;48440;51.224;22.506;2023-04-12T09:34:07;98421.44;;;14.22;62.26
62402;BME280;48440;51.224;22.506;2023-04-12T09:36:37;98423.72;;;14.15;60.97
62402;BME280;48440;51.224;22.506;2023-04-12T09:39:03;98414.38;;;14.35;60.89
62402;BME280;48440;51.224;22.506;2023-04-12T09:41:30;98414.56;;;14.98;60.04
62402;BME280;48440;51.224;22.506;2023-04-12T09:43:59;98410.56;;;15.32;57.76
62402;BME280;48440;51.224;22.506;2023-04-12T09:46:26;98413.25;;;15.59;56.80
62402;BME280;48440;51.224;22.506;2023-04-12T09:48:56;98402.34;;;15.81;56.78
62402;BME280;48440;51.224;22.506;2023-04-12T09:51:29;98400.59;;;16.08;55.71
62402;BME280;48440;51.224;22.506;2023-04-12T09:54:04;98408.22;;;16.19;53.02
62402;BME280;48440;51.224;22.506;2023-04-12T09:56:32;98402.13;;;16.22;53.13
62402;BME280;48440;51.224;22.506;2023-04-12T09:59:03;98407.38;;;16.10;53.80
62402;BME280;48440;51.224;22.506;2023-04-12T10:01:34;98399.31;;;16.36;54.15
62402;BME280;48440;51.224;22.506;2023-04-12T10:04:01;98385.44;;;16.63;54.13
62402;BME280;48440;51.224;22.506;2023-04-12T10:06:28;98392.47;;;16.95;53.94
62402;BME280;48440;51.224;22.506;2023-04-12T10:08:54;98383.47;;;17.04;53.94
62402;BME280;48440;51.224;22.506;2023-04-12T10:11:20;98388.31;;;17.15;51.24
62402;BME280;48440;51.224;22.506;2023-04-12T10:13:47;98385.88;;;16.96;50.52
62402;BME280;48440;51.224;22.506;2023-04-12T10:16:12;98381.53;;;16.95;51.07
62402;BME280;48440;51.224;22.506;2023-04-12T10:18:40;98384.09;;;16.92;52.23
62402;BME280;48440;51.224;22.506;2023-04-12T10:21:06;98384.09;;;16.92;51.87
62402;BME280;48440;51.224;22.506;2023-04-12T10:23:32;98374.00;;;17.10;52.72
62402;BME280;48440;51.224;22.506;2023-04-12T10:25:58;98378.47;;;16.97;52.00
62402;BME280;48440;51.224;22.506;2023-04-12T10:28:26;98374.41;;;16.94;51.79
62402;BME280;48440;51.224;22.506;2023-04-12T10:30:56;98374.91;;;16.96;51.25
62402;BME280;48440;51.224;22.506;2023-04-12T10:33:26;98380.44;;;17.05;51.84
62402;BME280;48440;51.224;22.506;2023-04-12T10:38:22;98378.19;;;16.68;52.82
62402;BME280;48440;51.224;22.506;2023-04-12T10:41:18;98367.91;;;16.42;52.91
62402;BME280;48440;51.224;22.506;2023-04-12T10:43:47;98366.00;;;16.43;53.60
62402;BME280;48440;51.224;22.506;2023-04-12T10:49:09;98363.06;;;16.39;54.83
62402;BME280;48440;51.224;22.506;2023-04-12T10:51:35;98363.34;;;16.60;53.79
62402;BME280;48440;51.224;22.506;2023-04-12T10:56:35;98357.97;;;16.46;53.23
62402;BME280;48440;51.224;22.506;2023-04-12T10:59:03;98348.75;;;16.11;52.64
62402;BME280;48440;51.224;22.506;2023-04-12T11:01:29;98348.88;;;15.75;51.73
62402;BME280;48440;51.224;22.506;2023-04-12T11:04:18;98335.72;;;15.41;52.54
62402;BME280;48440;51.224;22.506;2023-04-12T11:12:12;98342.91;;;15.01;55.10
62402;BME280;48440;51.224;22.506;2023-04-12T11:14:45;98336.94;;;14.99;54.91
62402;BME280;48440;51.224;22.506;2023-04-12T11:19:41;98331.88;;;15.06;53.95
62402;BME280;48440;51.224;22.506;2023-04-12T11:22:09;98338.97;;;14.93;54.66
62402;BME280;48440;51.224;22.506;2023-04-12T11:24:47;98338.66;;;14.95;53.96
62402;BME280;48440;51.224;22.506;2023-04-12T11:27:13;98325.63;;;14.92;54.61
62402;BME280;48440;51.224;22.506;2023-04-12T11:29:41;98336.84;;;14.90;55.15
62402;BME280;48440;51.224;22.506;2023-04-12T11:32:10;98334.97;;;14.77;54.81
62402;BME280;48440;51.224;22.506;2023-04-12T11:34:37;98335.25;;;14.76;55.54
62402;BME280;48440;51.224;22.506;2023-04-12T11:37:06;98332.03;;;14.74;56.05
62402;BME280;48440;51.224;22.506;2023-04-12T11:39:38;98336.88;;;14.77;56.15
62402;BME280;48440;51.224;22.506;2023-04-12T11:42:04;98333.94;;;14.73;54.80
62402;BME280;48440;51.224;22.506;2023-04-12T11:44:33;98335.06;;;14.72;55.14
62402;BME280;48440;51.224;22.506;2023-04-12T11:46:59;98334.56;;;14.70;56.41
62402;BME280;48440;51.224;22.506;2023-04-12T11:49:26;98334.97;;;14.64;56.02
62402;BME280;48440;51.224;22.506;2023-04-12T11:52:03;98330.69;;;14.57;55.95
62402;BME280;48440;51.224;22.506;2023-04-12T11:54:29;98328.69;;;14.49;55.32
62402;BME280;48440;51.224;22.506;2023-04-12T11:56:56;98331.44;;;14.49;55.55
62402;BME280;48440;51.224;22.506;2023-04-12T11:59:30;98328.69;;;14.49;56.04
62402;BME280;48440;51.224;22.506;2023-04-12T12:01:56;98332.53;;;14.48;56.57
62402;BME280;48440;51.224;22.506;2023-04-12T12:04:22;98327.59;;;14.50;56.87
62402;BME280;48440;51.224;22.506;2023-04-12T12:06:48;98315.06;;;14.49;56.77
62402;BME280;48440;51.224;22.506;2023-04-12T12:09:13;98315.88;;;14.50;57.58
62402;BME280;48440;51.224;22.506;2023-04-12T12:11:39;98314.25;;;14.49;57.83
62402;BME280;48440;51.224;22.506;2023-04-12T12:14:05;98318.91;;;14.48;56.64
62402;BME280;48440;51.224;22.506;2023-04-12T12:16:33;98317.69;;;14.41;56.66
62402;BME280;48440;51.224;22.506;2023-04-12T12:19:02;98317.53;;;14.32;57.23
62402;BME280;48440;51.224;22.506;2023-04-12T12:21:29;98317.66;;;14.27;57.54
62402;BME280;48440;51.224;22.506;2023-04-12T12:23:56;98319.97;;;14.20;58.28
62402;BME280;48440;51.224;22.506;2023-04-12T12:26:24;98312.84;;;14.05;58.57
62402;BME280;48440;51.224;22.506;2023-04-12T12:28:52;98315.19;;;13.98;58.36
62402;BME280;48440;51.224;22.506;2023-04-12T12:31:20;98308.16;;;13.78;58.06
62402;BME280;48440;51.224;22.506;2023-04-12T12:33:46;98318.16;;;13.69;59.09
62402;BME280;48440;51.224;22.506;2023-04-12T12:36:12;98310.94;;;13.59;59.43
62402;BME280;48440;51.224;22.506;2023-04-12T12:38:41;98311.00;;;13.54;60.21
62402;BME280;48440;51.224;22.506;2023-04-12T12:43:50;98318.56;;;13.44;62.27
62402;BME280;48440;51.224;22.506;2023-04-12T12:46:16;98315.69;;;13.35;64.99
62402;BME280;48440;51.224;22.506;2023-04-12T12:48:43;98312.81;;;13.27;65.94
62402;BME280;48440;51.224;22.506;2023-04-12T12:51:10;98313.81;;;13.17;67.56
62402;BME280;48440;51.224;22.506;2023-04-12T12:53:37;98305.38;;;13.13;69.02
62402;BME280;48440;51.224;22.506;2023-04-12T12:56:03;98302.19;;;13.06;70.76
62402;BME280;48440;51.224;22.506;2023-04-12T12:58:29;98295.19;;;13.00;70.95
62402;BME280;48440;51.224;22.506;2023-04-12T13:00:55;98297.94;;;13.00;70.91
62402;BME280;48440;51.224;22.506;2023-04-12T13:03:20;98291.38;;;13.01;71.01
62402;BME280;48440;51.224;22.506;2023-04-12T13:05:46;98295.94;;;13.06;70.32
62402;BME280;48440;51.224;22.506;2023-04-12T13:08:11;98301.38;;;13.06;70.03
62402;BME280;48440;51.224;22.506;2023-04-12T13:10:37;98297.34;;;13.03;68.10
62402;BME280;48440;51.224;22.506;2023-04-12T13:13:03;98295.72;;;13.02;68.70
62402;BME280;48440;51.224;22.506;2023-04-12T13:15:28;98291.59;;;13.05;69.07
62402;BME280;48440;51.224;22.506;2023-04-12T13:17:54;98289.69;;;13.05;69.07
62402;BME280;48440;51.224;22.506;2023-04-12T13:20:21;98293.44;;;13.09;68.19
62402;BME280;48440;51.224;22.506;2023-04-12T13:22:46;98286.91;;;13.10;67.80
62402;BME280;48440;51.224;22.506;2023-04-12T13:25:12;98287.66;;;13.16;68.55